Time;durP1;ratioP1;P1;durP2;ratioP2;P2;SDS_P1;SDS_P2;PMS_P1;PMS_P2;Temp;Humidity;BMP_temperature;BMP_pressure;BME280_temperature;BME280_humidity;BME280_pressure;Samples;Min_cycle;Max_cycle;Signal;HPM_P1;HPM_P2
2021/04/24 00:00:35;;;;;;;10.57;5.03;;;;;;;4.94;61.13;100331.59;5033087;28;20033;-60
2021/04/24 00:03:01;;;;;;;6.85;4.70;;;;;;;4.87;62.04;100338.63;5031649;28;20034;-60
2021/04/24 00:05:29;;;;;;;8.82;4.60;;;;;;;4.82;62.05;100333.03;5031152;28;20037;-60
2021/04/24 00:07:55;;;;;;;10.40;4.85;;;;;;;4.84;61.99;100331.03;5032701;28;20049;-60
2021/04/24 00:10:22;;;;;;;8.95;5.05;;;;;;;4.84;62.53;100333.69;5032825;28;20122;-60
2021/04/24 00:12:47;;;;;;;8.90;4.95;;;;;;;4.89;61.86;100333.97;5032669;28;20041;-60
2021/04/24 00:15:13;;;;;;;7.97;4.30;;;;;;;4.80;61.95;100328.91;5032613;28;20526;-60
2021/04/24 00:17:39;;;;;;;7.88;4.68;;;;;;;5.02;61.51;100325.41;5032865;28;20025;-60
2021/04/24 00:20:06;;;;;;;8.38;4.68;;;;;;;5.04;61.19;100320.72;5032912;28;20448;-60
2021/04/24 00:22:32;;;;;;;9.35;4.25;;;;;;;5.00;61.12;100326.59;5032358;28;20038;-60
2021/04/24 00:24:57;;;;;;;8.75;4.72;;;;;;;4.93;61.30;100324.63;5032983;28;20040;-60
2021/04/24 00:27:22;;;;;;;7.63;4.05;;;;;;;4.93;61.56;100323.81;5032150;28;20026;-60
2021/04/24 00:29:48;;;;;;;9.13;5.05;;;;;;;4.88;61.82;100327.00;5032824;28;20030;-60
2021/04/24 00:32:13;;;;;;;10.30;4.95;;;;;;;4.80;61.94;100335.03;5032334;28;20061;-60
2021/04/24 00:34:39;;;;;;;8.00;4.80;;;;;;;4.69;62.44;100332.78;5032366;28;20044;-60
2021/04/24 00:37:04;;;;;;;7.45;4.65;;;;;;;4.68;62.67;100336.44;5032474;28;20037;-60
2021/04/24 00:39:29;;;;;;;8.80;4.47;;;;;;;4.64;62.58;100329.81;5031018;28;20025;-60
2021/04/24 00:41:55;;;;;;;9.30;4.53;;;;;;;4.54;63.40;100341.53;5032525;28;20099;-60
2021/04/24 00:44:20;;;;;;;10.35;5.10;;;;;;;4.59;63.83;100345.47;5032719;28;20104;-60
2021/04/24 00:46:46;;;;;;;10.30;5.10;;;;;;;4.69;63.60;100343.41;5031853;28;20057;-60
2021/04/24 00:49:11;;;;;;;9.50;5.07;;;;;;;4.48;63.14;100339.56;5032525;28;20030;-60
2021/04/24 00:51:37;;;;;;;7.00;4.78;;;;;;;4.50;62.93;100339.41;5032204;28;20033;-60
2021/04/24 00:54:03;;;;;;;9.18;4.85;;;;;;;4.59;65.57;100330.34;5015080;28;20033;-60
2021/04/24 00:56:29;;;;;;;7.47;4.45;;;;;;;4.47;63.38;100334.44;5034259;28;20037;-60
2021/04/24 00:58:54;;;;;;;9.35;4.85;;;;;;;4.49;65.31;100327.94;5036410;28;20026;-60
2021/04/24 01:01:19;;;;;;;8.57;4.90;;;;;;;4.41;63.18;100325.31;5036125;28;20467;-60
2021/04/24 01:03:45;;;;;;;7.75;5.45;;;;;;;4.43;64.58;100322.50;5035063;28;20029;-59
2021/04/24 01:06:10;;;;;;;11.68;5.13;;;;;;;4.47;63.21;100326.47;5034077;28;20515;-60
2021/04/24 01:08:36;;;;;;;7.13;4.82;;;;;;;4.36;63.35;100319.72;5036312;28;20033;-60
2021/04/24 01:11:01;;;;;;;10.43;5.20;;;;;;;4.36;64.00;100321.56;5035864;28;20044;-60
2021/04/24 01:13:26;;;;;;;10.38;5.35;;;;;;;4.32;63.79;100327.22;5036159;28;20026;-60
2021/04/24 01:15:52;;;;;;;7.50;4.80;;;;;;;4.24;66.12;100326.41;5035604;28;20360;-61
2021/04/24 01:18:19;;;;;;;8.52;4.90;;;;;;;4.28;63.74;100319.78;5035810;28;20030;-60
2021/04/24 01:20:44;;;;;;;9.00;5.07;;;;;;;4.36;63.74;100322.38;5035136;28;20056;-60
2021/04/24 01:23:10;;;;;;;8.60;4.80;;;;;;;4.15;63.81;100325.66;5017796;28;20041;-60
2021/04/24 01:25:37;;;;;;;7.03;4.68;;;;;;;4.11;64.83;100319.84;5035436;28;20044;-60
2021/04/24 01:28:03;;;;;;;9.57;5.38;;;;;;;4.02;64.97;100320.91;5035203;28;20422;-60
2021/04/24 01:30:37;;;;;;;7.35;4.85;;;;;;;4.04;64.99;100315.41;5035539;28;20537;-60
2021/04/24 01:33:03;;;;;;;7.00;4.85;;;;;;;3.98;65.27;100308.97;5033970;28;20032;-60
2021/04/24 01:35:30;;;;;;;8.90;5.03;;;;;;;4.01;65.30;100316.59;5035050;28;20471;-60
2021/04/24 01:37:56;;;;;;;9.30;5.60;;;;;;;4.09;65.29;100311.25;5035403;28;20041;-60
2021/04/24 01:40:21;;;;;;;8.40;4.90;;;;;;;3.88;65.43;100313.69;5035302;28;20368;-60
2021/04/24 01:42:47;;;;;;;9.57;5.25;;;;;;;3.97;64.96;100312.66;5033747;28;20400;-59
2021/04/24 01:45:14;;;;;;;8.70;5.60;;;;;;;3.93;65.77;100313.97;5034731;28;20081;-59
2021/04/24 01:47:40;;;;;;;6.97;5.07;;;;;;;3.77;65.81;100316.69;5033787;28;20041;-59
2021/04/24 01:50:07;;;;;;;8.90;5.00;;;;;;;3.59;66.36;100319.56;5035261;28;20460;-59
2021/04/24 01:52:35;;;;;;;7.97;5.30;;;;;;;3.76;66.66;100312.38;5035135;28;20070;-59
2021/04/24 01:55:01;;;;;;;9.57;5.68;;;;;;;3.62;67.00;100311.25;5033910;28;20108;-59
2021/04/24 01:57:26;;;;;;;7.50;4.80;;;;;;;3.42;67.28;100310.81;5034964;28;20468;-60
2021/04/24 01:59:52;;;;;;;9.40;5.88;;;;;;;3.33;67.38;100319.81;5033845;28;20391;-61
2021/04/24 02:02:17;;;;;;;9.35;5.60;;;;;;;3.30;67.78;100317.50;5035091;28;20026;-60
2021/04/24 02:04:42;;;;;;;9.10;5.47;;;;;;;3.34;67.96;100316.16;5034470;28;20061;-60
2021/04/24 02:07:10;;;;;;;8.85;6.13;;;;;;;3.40;67.66;100315.50;5034232;28;20050;-60
2021/04/24 02:09:36;;;;;;;11.40;6.57;;;;;;;3.48;67.24;100315.47;5034634;28;20040;-61
2021/04/24 02:12:06;;;;;;;9.40;5.85;;;;;;;3.51;66.96;100317.78;5034996;28;20029;-60
2021/04/24 02:14:45;;;;;;;9.63;5.82;;;;;;;3.50;67.05;100316.13;5034236;28;20030;-60
2021/04/24 02:17:15;;;;;;;8.90;5.97;;;;;;;3.28;67.62;100316.84;5015047;28;20061;-60
2021/04/24 02:19:42;;;;;;;10.48;6.53;;;;;;;3.30;68.17;100309.56;5032985;28;20032;-60
2021/04/24 02:22:08;;;;;;;12.48;5.75;;;;;;;3.28;68.33;100311.53;5034848;28;20502;-61
2021/04/24 02:24:47;;;;;;;6.72;5.30;;;;;;;3.22;68.43;100313.00;5034442;28;20029;-60
2021/04/24 02:27:13;;;;;;;8.60;5.65;;;;;;;3.17;68.38;100310.91;5014773;28;20029;-61
2021/04/24 02:29:40;;;;;;;10.25;5.65;;;;;;;3.17;69.59;100316.19;5031258;28;20029;-60
2021/04/24 02:32:06;;;;;;;9.35;5.47;;;;;;;3.14;70.64;100316.50;5034604;28;20033;-60
2021/04/24 02:34:32;;;;;;;14.07;6.03;;;;;;;3.07;70.48;100315.53;5033027;28;20368;-61
2021/04/24 02:36:57;;;;;;;11.25;6.60;;;;;;;2.93;70.24;100310.91;5016510;28;20029;-60
2021/04/24 02:39:33;;;;;;;10.85;6.13;;;;;;;3.01;70.17;100311.72;5034214;28;20045;-61
2021/04/24 02:42:00;;;;;;;11.27;6.55;;;;;;;3.07;69.79;100304.94;5034268;28;20036;-61
2021/04/24 02:44:26;;;;;;;13.55;6.50;;;;;;;3.24;68.83;100316.34;5034040;28;20029;-61
2021/04/24 02:46:51;;;;;;;10.50;6.00;;;;;;;3.21;69.04;100306.06;5033775;28;20056;-60
2021/04/24 02:49:16;;;;;;;9.90;5.63;;;;;;;3.19;70.31;100316.84;5033927;28;20498;-60
2021/04/24 02:51:42;;;;;;;8.30;5.65;;;;;;;3.17;69.66;100310.03;5034211;28;20072;-60
2021/04/24 02:54:07;;;;;;;14.52;5.75;;;;;;;3.21;70.08;100309.53;5033853;28;20037;-61
2021/04/24 02:56:33;;;;;;;9.63;5.75;;;;;;;3.30;73.97;100315.66;5033662;28;20419;-61
2021/04/24 02:58:58;;;;;;;10.80;6.30;;;;;;;3.14;69.24;100316.50;5033783;28;20041;-61
2021/04/24 03:01:24;;;;;;;11.57;6.03;;;;;;;3.22;73.45;100316.50;5034077;28;20033;-61
2021/04/24 03:03:49;;;;;;;9.30;5.55;;;;;;;3.09;69.23;100316.19;5033598;28;20108;-60
2021/04/24 03:06:14;;;;;;;10.43;5.82;;;;;;;3.04;70.86;100315.84;5033282;28;20097;-60
2021/04/24 03:08:40;;;;;;;11.85;6.85;;;;;;;3.05;70.70;100312.22;5033473;28;20037;-60
2021/04/24 03:11:05;;;;;;;11.48;6.57;;;;;;;3.10;70.17;100317.84;5032408;28;20087;-60
2021/04/24 03:13:31;;;;;;;8.98;5.75;;;;;;;3.06;71.56;100308.56;5033647;28;20033;-61
2021/04/24 03:15:57;;;;;;;10.43;6.18;;;;;;;2.96;69.97;100310.56;5033143;28;20026;-59
2021/04/24 03:18:22;;;;;;;12.15;6.00;;;;;;;2.96;72.95;100308.75;5032893;28;20104;-61
2021/04/24 03:20:48;;;;;;;8.80;6.50;;;;;;;2.87;71.52;100307.13;5033274;28;20430;-61
2021/04/24 03:23:13;;;;;;;12.15;6.72;;;;;;;2.80;70.64;100312.25;5033464;28;20033;-61
2021/04/24 03:25:39;;;;;;;12.52;6.65;;;;;;;2.89;70.71;100312.22;5033206;28;20071;-61
2021/04/24 03:28:04;;;;;;;11.90;6.47;;;;;;;2.89;70.58;100312.22;5033343;28;20029;-61
2021/04/24 03:30:30;;;;;;;9.93;6.45;;;;;;;2.87;70.89;100308.91;5033290;28;20026;-61
2021/04/24 03:32:55;;;;;;;8.18;6.35;;;;;;;2.79;71.16;100302.63;5033319;28;20052;-61
2021/04/24 03:35:20;;;;;;;9.50;6.75;;;;;;;2.71;71.56;100296.50;5033236;28;20021;-61
2021/04/24 03:37:46;;;;;;;9.70;6.57;;;;;;;2.70;71.57;100301.00;5033364;28;20045;-59
2021/04/24 03:40:12;;;;;;;10.95;6.70;;;;;;;2.66;71.55;100299.66;5032627;28;20389;-59
2021/04/24 03:42:37;;;;;;;13.77;6.88;;;;;;;2.68;71.61;100302.97;5031999;28;20108;-61
2021/04/24 03:45:03;;;;;;;11.95;7.18;;;;;;;2.61;71.70;100301.97;5031887;28;20044;-59
2021/04/24 03:47:29;;;;;;;9.75;6.28;;;;;;;2.62;72.00;100305.44;5033188;28;20036;-61
2021/04/24 03:49:54;;;;;;;11.25;6.80;;;;;;;2.53;71.69;100308.09;5032659;28;20037;-61
2021/04/24 03:52:19;;;;;;;10.52;6.63;;;;;;;2.53;72.98;100307.25;5032993;28;20044;-60
2021/04/24 03:54:45;;;;;;;9.98;6.20;;;;;;;2.43;72.09;100309.22;5032890;28;20064;-60
2021/04/24 03:57:10;;;;;;;10.77;6.38;;;;;;;2.37;73.88;100306.25;5032887;28;20091;-61
2021/04/24 03:59:36;;;;;;;8.63;6.38;;;;;;;2.30;74.04;100297.31;5032252;28;20025;-59
2021/04/24 04:02:01;;;;;;;14.13;7.05;;;;;;;2.40;73.12;100298.94;5033154;28;20036;-60
2021/04/24 04:04:26;;;;;;;9.73;6.40;;;;;;;2.46;72.82;100298.31;5032740;28;20041;-61
2021/04/24 04:06:52;;;;;;;11.45;6.03;;;;;;;2.44;72.85;100302.94;5032724;28;20041;-59
2021/04/24 04:09:17;;;;;;;13.32;6.70;;;;;;;2.50;76.01;100302.31;5032249;28;20033;-60
2021/04/24 04:11:43;;;;;;;9.38;6.47;;;;;;;2.30;72.56;100297.31;5032828;28;20442;-59
2021/04/24 04:14:08;;;;;;;11.23;6.35;;;;;;;2.32;73.22;100297.97;5031385;28;20117;-60
2021/04/24 04:16:35;;;;;;;10.20;6.38;;;;;;;2.38;72.73;100310.53;5031761;28;20033;-59
2021/04/24 04:19:00;;;;;;;10.75;7.10;;;;;;;2.40;73.89;100312.19;5032582;28;20038;-59
2021/04/24 04:21:25;;;;;;;10.63;7.30;;;;;;;2.38;73.58;100310.53;5032829;28;20091;-59
2021/04/24 04:23:51;;;;;;;10.45;7.15;;;;;;;2.34;74.67;100308.38;5032451;28;20045;-59
2021/04/24 04:26:17;;;;;;;12.57;7.18;;;;;;;2.43;73.05;100306.59;5032664;28;20057;-59
2021/04/24 04:28:42;;;;;;;15.02;8.07;;;;;;;2.48;72.26;100313.03;5030721;28;20029;-59
2021/04/24 04:31:08;;;;;;;11.80;7.70;;;;;;;2.41;72.75;100308.56;5036139;28;20032;-59
2021/04/24 04:33:33;;;;;;;12.45;7.90;;;;;;;2.76;72.34;100308.25;5036400;28;20044;-59
2021/04/24 04:36:05;;;;;;;13.07;7.05;;;;;;;2.72;71.94;100317.53;5036401;28;20029;-61
2021/04/24 04:38:31;;;;;;;11.57;7.22;;;;;;;2.98;70.50;100324.47;5036295;28;20032;-62
2021/04/24 04:40:56;;;;;;;13.60;7.70;;;;;;;3.32;70.27;100324.28;5036357;28;20026;-59
2021/04/24 04:43:22;;;;;;;11.82;7.07;;;;;;;3.73;67.96;100328.66;5036110;28;20025;-59
2021/04/24 04:45:47;;;;;;;11.63;7.38;;;;;;;3.59;68.71;100332.81;5036522;28;20025;-59
2021/04/24 04:48:12;;;;;;;9.68;6.22;;;;;;;4.42;65.08;100342.94;5035828;28;20053;-59
2021/04/24 04:50:38;;;;;;;12.73;7.40;;;;;;;4.26;65.90;100337.69;5036630;28;20029;-60
2021/04/24 04:53:04;;;;;;;10.35;7.07;;;;;;;4.45;64.36;100341.75;5036276;28;20476;-60
2021/04/24 04:55:29;;;;;;;11.13;6.60;;;;;;;5.18;62.09;100343.03;5036398;28;20560;-60
2021/04/24 04:57:55;;;;;;;9.60;6.72;;;;;;;5.15;61.41;100338.88;5036122;28;20028;-60
2021/04/24 05:00:21;;;;;;;8.93;7.15;;;;;;;5.13;62.10;100340.06;5035953;28;20025;-60
2021/04/24 05:02:47;;;;;;;9.25;7.18;;;;;;;5.14;62.50;100337.25;5034789;28;20029;-60
2021/04/24 05:05:13;;;;;;;9.65;6.68;;;;;;;5.67;59.72;100342.53;5036000;28;20032;-60
2021/04/24 05:07:39;;;;;;;11.50;6.30;;;;;;;6.36;60.74;100344.03;5035941;28;20049;-60
2021/04/24 05:10:05;;;;;;;10.00;6.45;;;;;;;5.83;59.02;100345.00;5018156;28;20103;-61
2021/04/24 05:12:30;;;;;;;12.93;6.50;;;;;;;5.98;58.85;100338.88;5035755;28;20037;-60
2021/04/24 05:14:56;;;;;;;8.70;5.95;;;;;;;5.35;60.18;100349.84;5036018;28;20033;-61
2021/04/24 05:17:21;;;;;;;12.93;6.07;;;;;;;5.39;60.80;100345.81;5035604;28;20372;-61
2021/04/24 05:19:47;;;;;;;10.70;6.53;;;;;;;6.35;58.15;100350.38;5033935;28;20534;-61
2021/04/24 05:22:12;;;;;;;8.73;6.05;;;;;;;7.75;53.64;100353.25;5035800;28;20055;-61
2021/04/24 05:24:38;;;;;;;10.45;5.97;;;;;;;7.90;52.23;100350.44;5034213;28;20025;-61
2021/04/24 05:27:04;;;;;;;9.65;5.90;;;;;;;7.28;53.57;100352.09;5035371;28;20021;-60
2021/04/24 05:29:29;;;;;;;9.27;6.40;;;;;;;7.34;54.59;100350.53;5035671;28;20470;-60
2021/04/24 05:31:54;;;;;;;7.05;5.65;;;;;;;7.35;53.57;100346.81;5034252;28;20029;-60
2021/04/24 05:34:20;;;;;;;9.98;6.18;;;;;;;7.55;53.31;100353.13;5035727;28;20075;-60
2021/04/24 05:36:45;;;;;;;9.68;5.40;;;;;;;7.40;54.37;100349.72;5034719;28;20439;-59
2021/04/24 05:39:11;;;;;;;7.82;5.63;;;;;;;7.93;51.73;100358.06;5031177;28;20026;-60
2021/04/24 05:41:36;;;;;;;9.23;5.95;;;;;;;8.46;50.43;100362.00;5029267;28;20032;-59
2021/04/24 05:44:02;;;;;;;7.85;5.65;;;;;;;7.71;52.00;100353.81;5035083;28;20029;-59
2021/04/24 05:46:27;;;;;;;9.57;6.43;;;;;;;8.26;51.68;100356.56;5033815;28;20043;-61
2021/04/24 05:48:53;;;;;;;11.90;6.47;;;;;;;9.13;48.91;100358.41;5035137;28;20041;-59
2021/04/24 05:51:19;;;;;;;11.55;5.90;;;;;;;10.04;46.55;100357.69;5033242;28;20041;-59
2021/04/24 05:53:45;;;;;;;10.88;5.78;;;;;;;10.99;44.06;100357.00;5034052;28;20380;-60
2021/04/24 05:56:11;;;;;;;10.32;5.78;;;;;;;10.75;44.18;100362.09;5035006;28;20026;-60
2021/04/24 05:58:37;;;;;;;8.55;5.53;;;;;;;11.61;42.22;100362.47;5035098;28;20026;-60
2021/04/24 06:01:03;;;;;;;8.52;5.50;;;;;;;11.40;42.51;100363.69;5034639;28;20030;-60
2021/04/24 06:03:28;;;;;;;8.85;5.53;;;;;;;12.93;39.00;100365.41;5034460;28;20026;-60
2021/04/24 06:05:54;;;;;;;8.38;4.97;;;;;;;12.26;39.85;100370.88;5033773;28;20026;-60
2021/04/24 06:08:19;;;;;;;11.90;5.43;;;;;;;12.25;40.18;100373.78;5034526;28;20037;-60
2021/04/24 06:10:45;;;;;;;8.70;5.03;;;;;;;11.18;42.01;100364.09;5031993;28;20029;-60
2021/04/24 06:13:10;;;;;;;7.88;5.22;;;;;;;12.13;40.45;100376.44;5032779;28;20026;-60
2021/04/24 06:15:36;;;;;;;8.02;5.07;;;;;;;13.01;39.88;100368.84;5033295;28;20033;-60
2021/04/24 06:18:01;;;;;;;8.68;4.68;;;;;;;11.39;42.11;100365.56;5034511;28;20036;-60
2021/04/24 06:20:26;;;;;;;7.65;5.03;;;;;;;12.23;40.61;100367.81;5034339;28;20029;-60
2021/04/24 06:22:52;;;;;;;7.60;5.20;;;;;;;12.03;40.77;100373.41;5033878;28;20029;-60
2021/04/24 06:25:17;;;;;;;8.40;5.20;;;;;;;14.83;35.14;100372.28;5034611;28;20411;-60
2021/04/24 06:27:44;;;;;;;9.15;5.20;;;;;;;13.27;37.20;100359.53;5034513;28;20017;-60
2021/04/24 06:30:11;;;;;;;8.52;5.57;;;;;;;12.65;39.10;100357.94;5034264;28;20084;-60
2021/04/24 06:32:36;;;;;;;6.55;4.97;;;;;;;11.07;42.08;100355.91;5034464;28;20545;-60
2021/04/24 06:35:05;;;;;;;8.15;4.97;;;;;;;13.30;36.92;100361.75;5033963;28;20025;-60
2021/04/24 06:37:31;;;;;;;10.65;5.05;;;;;;;13.21;36.82;100360.44;5034066;28;20032;-60
2021/04/24 06:39:57;;;;;;;9.55;5.00;;;;;;;13.06;37.73;100359.00;5034015;28;20035;-60
2021/04/24 06:42:22;;;;;;;6.53;4.55;;;;;;;13.85;36.06;100347.94;5034482;28;20021;-61
2021/04/24 06:44:48;;;;;;;6.80;4.68;;;;;;;12.72;38.50;100353.28;5032688;28;20373;-61
2021/04/24 06:47:13;;;;;;;6.40;4.28;;;;;;;10.82;42.58;100355.88;5032678;28;20076;-59
2021/04/24 06:49:38;;;;;;;7.68;4.68;;;;;;;11.21;42.39;100360.16;5033674;28;20029;-61
2021/04/24 06:52:04;;;;;;;7.18;4.65;;;;;;;10.65;43.67;100347.53;5034168;28;20064;-61
2021/04/24 06:54:30;;;;;;;6.20;4.53;;;;;;;14.21;37.69;100354.06;5033644;28;20090;-61
2021/04/24 06:56:55;;;;;;;7.20;5.00;;;;;;;12.72;38.73;100356.00;5034165;28;20468;-60
2021/04/24 06:59:21;;;;;;;7.47;4.65;;;;;;;13.09;38.56;100355.03;5032480;28;20052;-62
2021/04/24 07:01:46;;;;;;;8.45;4.95;;;;;;;14.95;35.08;100354.16;5033541;28;20467;-59
2021/04/24 07:04:12;;;;;;;8.48;5.00;;;;;;;12.99;38.04;100355.59;5033706;28;20379;-61
2021/04/24 07:06:37;;;;;;;7.57;4.97;;;;;;;16.14;32.60;100358.34;5015701;28;20124;-60
2021/04/24 07:09:03;;;;;;;6.40;4.40;;;;;;;17.01;31.14;100359.28;5033547;28;20029;-59
2021/04/24 07:11:28;;;;;;;8.00;4.53;;;;;;;15.30;33.89;100351.22;5033565;28;20503;-60
2021/04/24 07:13:54;;;;;;;6.35;4.32;;;;;;;13.64;37.13;100349.38;5033529;28;20041;-59
2021/04/24 07:16:19;;;;;;;7.25;4.75;;;;;;;14.75;35.51;100351.91;5033741;28;20040;-59
2021/04/24 07:18:45;;;;;;;7.13;4.68;;;;;;;15.72;34.25;100356.19;5033043;28;20030;-59
2021/04/24 07:21:10;;;;;;;7.30;4.85;;;;;;;14.98;35.89;100355.53;5033183;28;20427;-60
2021/04/24 07:23:37;;;;;;;5.80;4.60;;;;;;;15.78;33.70;100348.16;5033162;28;20029;-61
2021/04/24 07:26:03;;;;;;;8.35;4.95;;;;;;;16.45;31.33;100352.47;5032794;28;20025;-61
2021/04/24 07:28:28;;;;;;;6.25;3.95;;;;;;;16.39;31.87;100346.19;5033150;28;20409;-60
2021/04/24 07:30:54;;;;;;;8.50;4.50;;;;;;;16.58;32.26;100349.38;5033191;28;20026;-61
2021/04/24 07:33:21;;;;;;;7.75;4.43;;;;;;;16.15;31.99;100343.78;5031850;28;20507;-61
2021/04/24 07:35:46;;;;;;;6.90;4.53;;;;;;;15.12;33.60;100350.63;5032027;28;20021;-61
2021/04/24 07:38:11;;;;;;;7.28;4.55;;;;;;;15.66;36.74;100345.53;5032984;28;20085;-61
2021/04/24 07:40:37;;;;;;;6.75;4.70;;;;;;;15.43;33.74;100349.25;5033368;28;20021;-61
2021/04/24 07:43:03;;;;;;;7.45;4.30;;;;;;;16.02;32.25;100352.22;5032397;28;20025;-59
2021/04/24 07:45:28;;;;;;;6.60;4.25;;;;;;;14.57;34.40;100352.09;5031433;28;20014;-62
2021/04/24 07:47:54;;;;;;;7.85;4.85;;;;;;;14.65;34.93;100355.25;5033213;28;20426;-60
2021/04/24 07:50:19;;;;;;;9.82;4.40;;;;;;;15.20;33.14;100342.94;5033119;28;20434;-60
2021/04/24 07:52:45;;;;;;;6.72;4.32;;;;;;;14.82;35.06;100349.03;5032799;28;20091;-60
2021/04/24 07:55:11;;;;;;;9.02;4.40;;;;;;;15.22;33.54;100348.09;5033052;28;20111;-60
2021/04/24 07:57:36;;;;;;;6.40;4.55;;;;;;;14.65;35.20;100354.41;5033003;28;20083;-59
2021/04/24 08:00:06;;;;;;;6.47;4.40;;;;;;;16.21;32.29;100354.66;5033002;28;20030;-61
2021/04/24 08:02:32;;;;;;;6.97;4.28;;;;;;;14.87;35.23;100351.81;5032991;28;20033;-61
2021/04/24 08:04:57;;;;;;;7.10;4.72;;;;;;;15.68;33.84;100349.59;5032366;28;20083;-61
2021/04/24 08:07:23;;;;;;;7.10;4.05;;;;;;;15.99;32.91;100358.16;5032618;28;20041;-61
2021/04/24 08:09:51;;;;;;;8.13;4.65;;;;;;;14.90;34.54;100345.94;5032722;28;20095;-60
2021/04/24 08:12:16;;;;;;;6.75;4.35;;;;;;;15.41;33.96;100340.56;5032885;28;20029;-61
2021/04/24 08:14:42;;;;;;;5.85;4.10;;;;;;;16.06;32.27;100342.56;5032773;28;20030;-61
2021/04/24 08:17:07;;;;;;;7.68;4.13;;;;;;;15.50;33.16;100336.34;5031208;28;20465;-61
2021/04/24 08:19:33;;;;;;;9.27;4.75;;;;;;;14.32;35.37;100328.94;5032603;28;20044;-61
2021/04/24 08:21:59;;;;;;;6.57;4.35;;;;;;;15.68;33.12;100336.09;5031277;28;20021;-61
2021/04/24 08:24:24;;;;;;;6.57;3.90;;;;;;;16.54;30.73;100335.53;5032769;28;20026;-60
2021/04/24 08:26:50;;;;;;;9.48;4.50;;;;;;;15.64;33.02;100334.94;5032571;28;20032;-60
2021/04/24 08:29:15;;;;;;;10.73;4.55;;;;;;;16.74;31.61;100331.41;5032387;28;20060;-60
2021/04/24 08:31:43;;;;;;;6.30;4.32;;;;;;;15.58;32.78;100327.84;5032398;28;20372;-60
2021/04/24 08:34:08;;;;;;;9.30;5.05;;;;;;;15.86;32.57;100332.31;5031034;28;20529;-60
2021/04/24 08:36:34;;;;;;;6.95;4.30;;;;;;;15.35;32.64;100328.88;5031343;28;20122;-60
2021/04/24 08:38:59;;;;;;;7.05;4.18;;;;;;;14.85;33.05;100332.34;5032504;28;20029;-60
2021/04/24 08:41:25;;;;;;;6.35;4.38;;;;;;;14.43;34.01;100321.88;5032414;28;20083;-60
2021/04/24 08:43:55;;;;;;;6.30;4.38;;;;;;;14.88;33.81;100331.88;5032576;28;20022;-61
2021/04/24 08:46:21;;;;;;;6.55;4.25;;;;;;;12.64;37.85;100328.59;5032319;28;20041;-60
2021/04/24 08:48:46;;;;;;;10.25;4.50;;;;;;;13.89;36.22;100318.66;5032180;28;20530;-60
2021/04/24 08:51:12;;;;;;;8.00;4.18;;;;;;;13.90;35.90;100315.69;5032300;28;20030;-60
2021/04/24 08:53:37;;;;;;;9.25;5.07;;;;;;;14.94;33.26;100320.09;5031153;28;20037;-60
2021/04/24 08:56:03;;;;;;;7.93;4.63;;;;;;;12.95;37.74;100314.06;5032420;28;20521;-60
2021/04/24 08:58:29;;;;;;;7.22;4.45;;;;;;;13.80;35.66;100315.47;5032285;28;20460;-61
2021/04/24 09:00:54;;;;;;;7.60;4.35;;;;;;;15.08;33.86;100309.81;5031002;28;20022;-60
2021/04/24 09:03:21;;;;;;;8.35;4.75;;;;;;;15.22;33.23;100305.69;5031134;28;20360;-61
2021/04/24 09:05:55;;;;;;;7.55;4.68;;;;;;;13.28;36.67;100310.84;5032261;28;20417;-60
2021/04/24 09:08:26;;;;;;;7.57;4.50;;;;;;;13.21;36.09;100309.31;5032216;28;20053;-61
2021/04/24 09:10:56;;;;;;;7.32;4.15;;;;;;;14.83;33.93;100307.50;5031221;28;20084;-60
2021/04/24 09:13:23;;;;;;;6.53;4.43;;;;;;;15.53;32.30;100317.78;5032288;28;20053;-60
2021/04/24 09:15:49;;;;;;;8.30;4.60;;;;;;;15.40;31.87;100314.59;5030943;28;20052;-60
2021/04/24 09:18:15;;;;;;;8.02;4.55;;;;;;;15.32;32.55;100311.28;5035362;28;20116;-60
2021/04/24 09:20:53;;;;;;;7.03;4.40;;;;;;;15.38;31.81;100308.66;5035786;28;20053;-61
2021/04/24 09:23:23;;;;;;;7.85;4.30;;;;;;;15.59;30.68;100313.25;5035690;28;20163;-61
2021/04/24 09:25:58;;;;;;;7.25;4.00;;;;;;;15.43;31.10;100312.22;5035880;28;20049;-60
2021/04/24 09:28:35;;;;;;;7.28;4.03;;;;;;;16.96;27.46;100318.63;5035540;28;20116;-60
2021/04/24 09:31:21;;;;;;;7.93;4.78;;;;;;;15.90;28.66;100310.97;5035581;28;20546;-60
2021/04/24 09:33:47;;;;;;;9.63;4.10;;;;;;;15.74;30.12;100312.69;5035752;28;20365;-60
2021/04/24 09:36:13;;;;;;;7.47;4.15;;;;;;;16.35;28.90;100309.91;5035572;28;20029;-60
2021/04/24 09:38:40;;;;;;;7.40;4.20;;;;;;;16.45;30.35;100301.91;5035484;28;20029;-61
2021/04/24 09:41:05;;;;;;;6.30;4.25;;;;;;;14.79;32.03;100306.34;5034485;28;20088;-60
2021/04/24 09:43:57;;;;;;;6.65;4.18;;;;;;;14.01;32.39;100305.97;5035309;28;20032;-60
2021/04/24 09:46:29;;;;;;;6.90;4.07;;;;;;;14.26;32.51;100300.25;5035558;28;20324;-60
2021/04/24 09:49:15;;;;;;;5.65;4.13;;;;;;;15.88;29.33;100296.91;5034929;28;20030;-61
2021/04/24 09:51:58;;;;;;;7.03;4.50;;;;;;;15.42;30.79;100293.56;5035313;28;20025;-61
2021/04/24 09:54:26;;;;;;;7.07;4.10;;;;;;;14.50;32.29;100297.44;5035188;28;20360;-60
2021/04/24 09:57:05;;;;;;;6.10;4.05;;;;;;;14.46;32.42;100291.72;5033654;28;20029;-60
2021/04/24 09:59:31;;;;;;;6.65;4.53;;;;;;;15.78;30.30;100291.38;5033832;28;20036;-60
2021/04/24 10:02:00;;;;;;;5.93;3.92;;;;;;;16.73;28.93;100287.28;5035282;28;20353;-61
2021/04/24 10:04:26;;;;;;;5.72;4.05;;;;;;;17.15;28.05;100289.25;5035050;28;20460;-60
2021/04/24 10:06:54;;;;;;;6.13;3.85;;;;;;;16.35;28.54;100280.97;5034675;28;20087;-60
2021/04/24 10:09:30;;;;;;;5.85;3.60;;;;;;;17.12;27.61;100278.94;5034898;28;20057;-61
2021/04/24 10:12:09;;;;;;;5.70;3.80;;;;;;;17.34;27.22;100262.56;5033452;28;20033;-61
2021/04/24 10:14:44;;;;;;;6.90;4.00;;;;;;;16.72;27.38;100279.41;5034674;28;20472;-61
2021/04/24 10:17:17;;;;;;;5.45;3.75;;;;;;;15.90;28.18;100273.13;5033732;28;20121;-61
2021/04/24 10:19:43;;;;;;;6.78;3.95;;;;;;;16.48;28.01;100278.94;5034729;28;20498;-61
2021/04/24 10:22:10;;;;;;;8.68;3.83;;;;;;;16.93;26.79;100273.13;5034665;28;20033;-61
2021/04/24 10:24:36;;;;;;;6.00;3.67;;;;;;;17.36;28.11;100279.38;5034587;28;20104;-61
2021/04/24 10:27:02;;;;;;;5.95;3.78;;;;;;;15.58;29.97;100267.59;5033166;28;20108;-61
2021/04/24 10:29:27;;;;;;;5.07;3.10;;;;;;;16.48;28.03;100266.22;5032908;28;20033;-61
2021/04/24 10:31:53;;;;;;;6.18;3.53;;;;;;;17.89;27.12;100261.22;5034530;28;20064;-60
2021/04/24 10:34:18;;;;;;;6.28;3.90;;;;;;;18.28;26.13;100268.13;5034565;28;20455;-61
2021/04/24 10:36:44;;;;;;;7.78;4.10;;;;;;;15.61;29.10;100265.19;5033190;28;20459;-60
2021/04/24 10:39:12;;;;;;;5.50;3.53;;;;;;;15.86;28.88;100256.63;5034258;28;20049;-61
2021/04/24 10:41:41;;;;;;;5.75;3.72;;;;;;;15.48;29.60;100255.56;5016943;28;20029;-61
2021/04/24 10:44:14;;;;;;;5.93;3.83;;;;;;;15.54;29.93;100251.84;5033142;28;20025;-60
2021/04/24 10:46:49;;;;;;;6.03;3.83;;;;;;;16.29;29.11;100254.91;5034041;28;20025;-60
2021/04/24 10:49:28;;;;;;;5.38;3.65;;;;;;;15.55;29.52;100247.28;5032677;28;20033;-61
2021/04/24 10:52:16;;;;;;;5.90;3.67;;;;;;;13.72;32.71;100248.50;5033053;28;20049;-61
2021/04/24 10:54:41;;;;;;;7.38;3.65;;;;;;;13.63;32.77;100248.06;5034218;28;20029;-61
2021/04/24 10:57:41;;;;;;;5.18;3.30;;;;;;;14.96;31.39;100246.97;5034076;28;20044;-62
2021/04/24 11:00:10;;;;;;;4.75;3.20;;;;;;;15.41;30.84;100244.13;5034176;28;20049;-60
2021/04/24 11:02:45;;;;;;;5.55;3.42;;;;;;;16.16;29.40;100239.09;5033978;28;20022;-60
2021/04/24 11:05:22;;;;;;;5.28;3.33;;;;;;;15.30;29.98;100237.78;5033936;28;20095;-60
2021/04/24 11:07:48;;;;;;;5.20;3.50;;;;;;;13.87;31.35;100229.94;5033562;28;20049;-60
2021/04/24 11:10:13;;;;;;;6.82;3.60;;;;;;;13.73;31.87;100229.41;5033636;28;20024;-60
2021/04/24 11:12:43;;;;;;;6.20;3.60;;;;;;;14.16;31.13;100229.97;5033824;28;20431;-60
2021/04/24 11:15:10;;;;;;;10.45;3.53;;;;;;;13.45;33.34;100222.09;5034030;28;20116;-61
2021/04/24 11:17:38;;;;;;;5.78;3.13;;;;;;;15.16;32.03;100224.88;5032342;28;20387;-61
2021/04/24 11:20:10;;;;;;;5.50;3.10;;;;;;;14.59;32.75;100228.59;5033476;28;20036;-60
2021/04/24 11:22:37;;;;;;;7.75;3.70;;;;;;;13.29;33.34;100223.63;5033468;28;20057;-60
2021/04/24 11:25:18;;;;;;;6.38;3.58;;;;;;;14.61;33.58;100223.75;5032267;28;20040;-60